Time;durP1;ratioP1;P1;durP2;ratioP2;P2;SDS_P1;SDS_P2;PMS_P1;PMS_P2;Temp;Humidity;BMP_temperature;BMP_pressure;BME280_temperature;BME280_humidity;BME280_pressure;Samples;Min_cycle;Max_cycle;Signal;HPM_P1;HPM_P2
2024/01/19 00:00:00;;;;;;;7.72;2.35;;;-0.80;99.90;;;;;;5076050;28;20055;-89
2024/01/19 00:02:25;;;;;;;3.15;1.23;;;-0.70;99.90;;;;;;5089955;28;20060;-90
2024/01/19 00:04:51;;;;;;;3.78;1.15;;;-0.60;99.90;;;;;;5099437;28;20483;-90
2024/01/19 00:07:17;;;;;;;1.55;0.88;;;-0.40;99.90;;;;;;5089487;28;20585;-90
2024/01/19 00:09:42;;;;;;;7.50;2.10;;;-0.30;99.90;;;;;;5081116;27;20051;-90
2024/01/19 00:12:08;;;;;;;6.00;2.38;;;-0.30;99.90;;;;;;5075836;28;20051;-90
2024/01/19 00:14:34;;;;;;;5.78;1.90;;;-0.30;99.90;;;;;;5095069;27;20036;-89
2024/01/19 00:17:00;;;;;;;7.35;1.92;;;-0.30;99.90;;;;;;5089731;28;20696;-90
2024/01/19 00:19:25;;;;;;;4.03;1.42;;;-0.30;99.90;;;;;;5074614;28;20028;-90
2024/01/19 00:21:51;;;;;;;7.45;1.83;;;-0.40;99.90;;;;;;5072246;28;20028;-90
2024/01/19 00:24:17;;;;;;;3.72;1.60;;;-0.40;99.90;;;;;;5072721;28;20035;-90
2024/01/19 00:26:44;;;;;;;5.05;1.58;;;-0.40;99.90;;;;;;5075979;28;20028;-90
2024/01/19 00:29:10;;;;;;;4.22;1.23;;;-0.40;99.90;;;;;;5099621;28;20410;-90
2024/01/19 00:31:36;;;;;;;4.30;1.48;;;-0.40;99.90;;;;;;5102218;27;20547;-90
2024/01/19 00:34:02;;;;;;;4.93;1.80;;;-0.50;99.90;;;;;;5074617;28;20036;-90
2024/01/19 00:36:27;;;;;;;2.95;1.40;;;-0.50;99.90;;;;;;5099759;28;20052;-90
2024/01/19 00:38:53;;;;;;;3.72;1.45;;;-0.60;99.90;;;;;;5100653;27;20027;-89
2024/01/19 00:41:19;;;;;;;4.22;1.27;;;-0.60;99.90;;;;;;5092186;27;20404;-89
2024/01/19 00:43:44;;;;;;;7.78;2.15;;;-0.70;99.90;;;;;;5077362;28;20711;-90
2024/01/19 00:46:10;;;;;;;7.93;1.85;;;-0.70;99.90;;;;;;5073088;28;20036;-90
2024/01/19 00:48:36;;;;;;;6.20;1.58;;;-0.70;99.90;;;;;;5070881;28;20035;-89
2024/01/19 00:51:02;;;;;;;3.60;1.30;;;-0.70;99.90;;;;;;5088289;28;20453;-90
2024/01/19 00:53:28;;;;;;;3.03;1.10;;;-0.80;99.90;;;;;;5088954;28;20036;-89
2024/01/19 00:55:53;;;;;;;3.47;1.05;;;-0.80;99.90;;;;;;5076773;28;20068;-89
2024/01/19 00:58:19;;;;;;;2.67;1.10;;;-0.90;99.90;;;;;;5090337;28;20500;-89
2024/01/19 01:00:44;;;;;;;3.78;1.67;;;-0.90;99.90;;;;;;5090416;27;20044;-89
2024/01/19 01:03:10;;;;;;;2.40;1.13;;;-0.90;99.90;;;;;;5089630;28;20099;-90
2024/01/19 01:05:36;;;;;;;3.50;1.00;;;-0.90;99.90;;;;;;5087751;28;20415;-89
2024/01/19 01:08:01;;;;;;;1.77;0.85;;;-0.80;99.90;;;;;;5073323;28;20031;-89
2024/01/19 01:10:27;;;;;;;2.05;1.55;;;-0.90;99.90;;;;;;5073579;28;20032;-90
2024/01/19 01:12:52;;;;;;;4.20;1.40;;;-0.80;99.90;;;;;;5091211;28;20043;-90
2024/01/19 01:15:18;;;;;;;4.72;1.33;;;-0.80;99.90;;;;;;5090593;28;20051;-90
2024/01/19 01:17:44;;;;;;;3.05;1.17;;;-0.80;99.90;;;;;;5072643;28;20036;-90
2024/01/19 01:20:15;;;;;;;1.65;0.85;;;-0.70;99.90;;;;;;5075296;28;20036;-90
2024/01/19 01:22:41;;;;;;;6.03;1.30;;;-0.70;99.90;;;;;;5092449;28;20047;-90
2024/01/19 01:25:06;;;;;;;2.00;1.02;;;-0.70;99.90;;;;;;5084938;28;20042;-90
2024/01/19 01:27:32;;;;;;;2.80;1.10;;;-0.70;99.90;;;;;;5078128;28;20036;-90
2024/01/19 01:29:58;;;;;;;2.30;0.85;;;-0.70;99.90;;;;;;5089204;28;20040;-90
2024/01/19 01:32:23;;;;;;;5.05;1.70;;;-0.70;99.90;;;;;;5087391;28;20051;-90
2024/01/19 01:34:49;;;;;;;6.95;2.00;;;-0.80;99.90;;;;;;5092629;28;20032;-90
2024/01/19 01:37:14;;;;;;;2.90;1.30;;;-0.80;99.90;;;;;;5072912;28;20039;-90
2024/01/19 01:39:40;;;;;;;4.93;2.17;;;-0.80;99.90;;;;;;5091086;28;20178;-90
2024/01/19 01:42:06;;;;;;;5.65;1.42;;;-0.80;99.90;;;;;;5089273;28;20028;-90
2024/01/19 01:44:32;;;;;;;3.08;1.30;;;-0.80;99.90;;;;;;5092881;28;20286;-90
2024/01/19 01:46:57;;;;;;;4.10;2.22;;;-0.80;99.90;;;;;;5092858;28;20670;-90
2024/01/19 01:49:23;;;;;;;2.60;1.10;;;-0.70;99.90;;;;;;5088991;28;20048;-90
2024/01/19 01:51:49;;;;;;;5.40;1.58;;;-0.70;99.90;;;;;;5081143;28;20122;-90
2024/01/19 01:54:15;;;;;;;3.53;1.23;;;-0.70;99.90;;;;;;5076024;28;20082;-90
2024/01/19 01:56:41;;;;;;;7.70;1.88;;;-0.70;99.90;;;;;;5076497;28;20035;-90
2024/01/19 01:59:08;;;;;;;6.50;1.95;;;-0.70;99.90;;;;;;5071654;28;20035;-90
2024/01/19 02:01:34;;;;;;;7.32;3.25;;;-0.70;99.90;;;;;;5088573;28;20121;-90
2024/01/19 02:04:01;;;;;;;4.85;1.50;;;-0.60;99.90;;;;;;5072273;28;20042;-90
2024/01/19 02:06:28;;;;;;;3.15;1.17;;;-0.50;99.90;;;;;;5089691;28;20413;-90
2024/01/19 02:08:55;;;;;;;4.85;1.67;;;-0.40;99.90;;;;;;5093820;28;20032;-89
2024/01/19 02:11:21;;;;;;;3.95;1.60;;;-0.40;99.90;;;;;;5088121;28;20059;-90
2024/01/19 02:13:46;;;;;;;6.45;1.92;;;-0.30;99.90;;;;;;5088137;28;20150;-91
2024/01/19 02:16:12;;;;;;;6.45;2.75;;;-0.30;99.90;;;;;;5091842;28;20035;-91
2024/01/19 02:18:38;;;;;;;4.65;1.27;;;-0.30;99.90;;;;;;5096068;28;21277;-91
2024/01/19 02:21:04;;;;;;;3.58;1.65;;;-0.30;99.90;;;;;;5091078;28;20035;-91
2024/01/19 02:23:35;;;;;;;7.93;1.67;;;-0.30;99.90;;;;;;5090969;28;20115;-91
2024/01/19 02:26:02;;;;;;;5.30;1.63;;;-0.30;99.90;;;;;;5071559;28;20066;-90
2024/01/19 02:28:28;;;;;;;3.33;1.38;;;-0.30;99.90;;;;;;5090500;28;20032;-90
2024/01/19 02:30:53;;;;;;;7.65;1.77;;;-0.30;99.90;;;;;;5087465;28;20066;-90
2024/01/19 02:33:19;;;;;;;4.70;1.38;;;-0.30;99.90;;;;;;5088317;28;20384;-90
2024/01/19 02:35:44;;;;;;;3.58;1.50;;;-0.30;99.90;;;;;;5076748;28;20072;-90
2024/01/19 02:38:10;;;;;;;5.40;1.55;;;-0.30;99.90;;;;;;5096832;28;20063;-90
2024/01/19 02:40:36;;;;;;;4.45;1.30;;;-0.30;99.90;;;;;;5094094;28;20040;-90
2024/01/19 02:43:01;;;;;;;4.65;1.40;;;-0.30;99.90;;;;;;5093877;27;20437;-90
2024/01/19 02:45:27;;;;;;;6.13;1.95;;;-0.40;99.90;;;;;;5072256;28;20032;-90
2024/01/19 02:47:53;;;;;;;3.40;1.30;;;-0.30;99.90;;;;;;5094757;27;20384;-91
2024/01/19 02:50:18;;;;;;;6.05;1.90;;;-0.30;99.90;;;;;;5080466;28;20040;-91
2024/01/19 02:52:44;;;;;;;4.78;1.77;;;-0.30;99.90;;;;;;5096553;27;20418;-90
2024/01/19 02:55:09;;;;;;;5.95;1.95;;;-0.30;99.90;;;;;;5091791;27;20065;-90
2024/01/19 02:57:35;;;;;;;5.85;1.58;;;-0.30;99.90;;;;;;5090049;28;20032;-90
2024/01/19 03:00:01;;;;;;;2.90;1.52;;;-0.20;99.90;;;;;;5073308;28;20576;-90
2024/01/19 03:02:26;;;;;;;2.67;0.70;;;-0.30;99.90;;;;;;5094739;27;20059;-90
2024/01/19 03:04:52;;;;;;;3.97;1.73;;;-0.30;99.90;;;;;;5079079;28;20505;-90
2024/01/19 03:07:17;;;;;;;2.60;1.27;;;-0.40;99.90;;;;;;5091085;28;20044;-90
2024/01/19 03:09:43;;;;;;;4.30;1.25;;;-0.40;99.90;;;;;;5091212;28;20036;-90
2024/01/19 03:12:08;;;;;;;3.50;1.65;;;-0.30;99.90;;;;;;5073734;28;20048;-90
2024/01/19 03:14:34;;;;;;;6.50;2.08;;;-0.20;99.90;;;;;;5076296;28;20499;-90
2024/01/19 03:16:59;;;;;;;6.45;1.50;;;-0.20;99.90;;;;;;5094078;27;20035;-90
2024/01/19 03:19:25;;;;;;;3.60;1.17;;;-0.10;99.90;;;;;;5095023;27;20032;-90
2024/01/19 03:21:51;;;;;;;5.57;1.92;;;-0.10;99.90;;;;;;5076916;28;20070;-91
2024/01/19 03:24:16;;;;;;;3.03;1.13;;;-0.10;99.90;;;;;;5094406;27;20039;-89
2024/01/19 03:26:42;;;;;;;2.00;0.88;;;0.00;99.90;;;;;;5094168;27;20487;-89
2024/01/19 03:29:09;;;;;;;2.50;1.17;;;0.00;99.90;;;;;;5090740;27;20123;-90
2024/01/19 03:31:35;;;;;;;4.25;1.00;;;0.00;99.90;;;;;;5093466;28;20036;-90
2024/01/19 03:34:01;;;;;;;4.45;0.93;;;0.00;99.90;;;;;;5100523;28;20054;-90
2024/01/19 03:36:26;;;;;;;5.55;1.05;;;0.00;99.90;;;;;;5098136;28;20509;-90
2024/01/19 03:38:52;;;;;;;3.28;1.23;;;0.00;99.90;;;;;;5096241;28;20056;-90
2024/01/19 03:41:17;;;;;;;4.18;1.17;;;0.00;99.90;;;;;;5095077;28;20058;-90
2024/01/19 03:43:44;;;;;;;4.15;1.52;;;0.00;99.90;;;;;;5091190;28;20510;-91
2024/01/19 03:46:10;;;;;;;3.95;1.50;;;0.00;99.90;;;;;;5081840;28;20032;-90
2024/01/19 03:48:36;;;;;;;5.82;1.23;;;0.00;99.90;;;;;;5077295;28;20119;-89
2024/01/19 03:51:01;;;;;;;3.53;0.82;;;0.00;99.90;;;;;;5076280;28;20058;-90
2024/01/19 03:53:27;;;;;;;7.05;1.50;;;0.10;99.90;;;;;;5078471;28;20040;-90
2024/01/19 03:55:53;;;;;;;4.68;1.10;;;0.10;99.90;;;;;;5095914;27;20483;-91
2024/01/19 03:58:19;;;;;;;3.05;1.00;;;0.20;99.90;;;;;;5089506;28;20081;-90
2024/01/19 04:00:44;;;;;;;4.05;1.52;;;0.20;99.90;;;;;;5077953;27;20726;-90
2024/01/19 04:03:10;;;;;;;5.97;1.00;;;0.20;99.90;;;;;;5094029;27;20066;-90
2024/01/19 04:05:35;;;;;;;2.05;1.00;;;0.30;99.90;;;;;;5091732;27;20040;-90
2024/01/19 04:08:02;;;;;;;2.95;0.90;;;0.30;99.90;;;;;;5089761;28;20039;-90
2024/01/19 04:10:28;;;;;;;4.13;1.17;;;0.30;99.90;;;;;;5072598;28;20518;-90
2024/01/19 04:12:54;;;;;;;2.58;0.82;;;0.30;99.90;;;;;;5074003;27;20097;-90
2024/01/19 04:15:20;;;;;;;4.28;1.30;;;0.30;99.90;;;;;;5073530;28;20032;-90
2024/01/19 04:17:45;;;;;;;3.08;0.93;;;0.30;99.90;;;;;;5092308;28;20070;-91
2024/01/19 04:20:11;;;;;;;7.10;1.70;;;0.30;99.90;;;;;;5090551;28;20478;-90
2024/01/19 04:22:37;;;;;;;3.35;1.08;;;0.30;99.90;;;;;;5095760;27;20051;-90
2024/01/19 04:25:03;;;;;;;7.30;1.20;;;0.30;99.90;;;;;;5071540;28;20028;-90
2024/01/19 04:27:29;;;;;;;4.55;1.35;;;0.30;99.90;;;;;;5090235;28;20032;-90
2024/01/19 04:29:54;;;;;;;5.03;1.25;;;0.20;99.90;;;;;;5091944;28;20052;-90
2024/01/19 04:32:20;;;;;;;5.63;1.33;;;0.20;99.90;;;;;;5090331;28;20035;-89
2024/01/19 04:34:46;;;;;;;7.65;1.40;;;0.20;99.90;;;;;;5073022;28;20131;-91
2024/01/19 04:37:11;;;;;;;3.03;1.58;;;0.10;99.90;;;;;;5088905;28;20118;-89
2024/01/19 04:39:37;;;;;;;2.75;1.33;;;0.10;99.90;;;;;;5074750;28;20067;-90
2024/01/19 04:42:03;;;;;;;4.80;0.77;;;0.10;99.90;;;;;;5073822;28;20552;-90
2024/01/19 04:44:28;;;;;;;1.02;0.75;;;0.00;99.90;;;;;;5090022;28;20079;-90
2024/01/19 04:46:54;;;;;;;6.43;1.08;;;0.00;99.90;;;;;;5092326;28;20059;-91
2024/01/19 04:49:19;;;;;;;6.90;1.13;;;-0.10;99.90;;;;;;5075282;28;20035;-91
2024/01/19 04:51:45;;;;;;;2.45;0.75;;;-0.10;99.90;;;;;;5091062;28;20471;-90
2024/01/19 04:54:11;;;;;;;2.53;1.00;;;-0.10;99.90;;;;;;5090556;28;20067;-90
2024/01/19 04:56:36;;;;;;;1.48;0.73;;;-0.10;99.90;;;;;;5102568;28;20518;-89
2024/01/19 04:59:02;;;;;;;0.30;0.30;;;-0.10;99.90;;;;;;5100844;27;20024;-90
2024/01/19 05:01:28;;;;;;;0.40;0.40;;;-0.10;99.90;;;;;;5073570;28;20674;-90
2024/01/19 05:03:54;;;;;;;0.93;0.50;;;-0.10;99.90;;;;;;5090010;28;20032;-90
2024/01/19 05:06:19;;;;;;;1.38;0.57;;;-0.10;99.90;;;;;;5087848;28;20036;-90
2024/01/19 05:08:46;;;;;;;7.78;1.05;;;-0.10;99.90;;;;;;5097153;28;20080;-91
2024/01/19 05:11:13;;;;;;;2.72;1.17;;;-0.10;99.90;;;;;;5076315;28;20130;-89
2024/01/19 05:13:41;;;;;;;3.65;1.02;;;-0.20;99.90;;;;;;5094197;27;20048;-89
2024/01/19 05:16:07;;;;;;;2.03;0.70;;;-0.20;99.90;;;;;;5097200;28;20028;-90
2024/01/19 05:18:34;;;;;;;2.88;1.05;;;-0.20;99.90;;;;;;5075104;28;20456;-90
2024/01/19 05:21:00;;;;;;;3.47;1.08;;;-0.10;99.90;;;;;;5072548;28;20043;-89
2024/01/19 05:23:26;;;;;;;1.80;0.85;;;-0.10;99.90;;;;;;5087285;28;20035;-90
2024/01/19 05:25:51;;;;;;;1.80;0.93;;;-0.10;99.90;;;;;;5099836;28;20411;-89
2024/01/19 05:28:17;;;;;;;2.50;1.45;;;0.00;99.90;;;;;;5074267;28;20059;-89
2024/01/19 05:30:42;;;;;;;1.02;0.60;;;0.00;99.90;;;;;;5089290;28;20032;-89
2024/01/19 05:33:08;;;;;;;2.50;1.05;;;0.00;99.90;;;;;;5089858;28;20035;-90
2024/01/19 05:35:34;;;;;;;4.22;1.98;;;0.00;99.90;;;;;;5073710;28;20028;-90
2024/01/19 05:38:00;;;;;;;2.63;0.75;;;0.00;99.90;;;;;;5088133;28;20036;-90
2024/01/19 05:40:25;;;;;;;4.90;1.25;;;0.00;99.90;;;;;;5078146;28;20053;-90
2024/01/19 05:42:51;;;;;;;2.00;1.10;;;0.00;99.90;;;;;;5093894;28;20421;-90
2024/01/19 05:45:17;;;;;;;4.90;1.60;;;0.00;99.90;;;;;;5087911;28;20071;-90
2024/01/19 05:47:43;;;;;;;2.25;0.95;;;0.00;99.90;;;;;;5071194;28;20552;-90
2024/01/19 05:50:09;;;;;;;3.05;1.30;;;0.00;99.90;;;;;;5087355;28;20036;-90
2024/01/19 05:52:35;;;;;;;2.67;1.02;;;-0.10;99.90;;;;;;5088025;28;20063;-90
2024/01/19 05:55:00;;;;;;;3.03;1.10;;;-0.10;99.90;;;;;;5092943;28;20480;-90
2024/01/19 05:57:26;;;;;;;2.20;0.88;;;-0.10;99.90;;;;;;5093281;28;20407;-90
2024/01/19 05:59:51;;;;;;;0.52;0.52;;;-0.20;99.90;;;;;;5074762;28;20654;-90
2024/01/19 06:02:17;;;;;;;1.65;0.73;;;-0.20;99.90;;;;;;5072263;28;20090;-90
2024/01/19 06:04:43;;;;;;;2.47;0.90;;;-0.20;99.90;;;;;;5092498;28;20024;-90
2024/01/19 06:07:08;;;;;;;6.65;1.90;;;-0.30;99.90;;;;;;5097226;28;20025;-91
2024/01/19 06:09:34;;;;;;;0.75;0.52;;;-0.40;99.90;;;;;;5093836;28;20599;-90
2024/01/19 06:11:59;;;;;;;2.75;0.88;;;-0.40;99.90;;;;;;5097703;28;20036;-89
2024/01/19 06:14:25;;;;;;;2.83;1.23;;;-0.50;99.90;;;;;;5092672;28;20119;-90
2024/01/19 06:16:52;;;;;;;2.53;0.80;;;-0.50;99.90;;;;;;5093522;28;20149;-90
2024/01/19 06:19:18;;;;;;;4.13;1.58;;;-0.50;99.90;;;;;;5090935;28;20028;-90
2024/01/19 06:21:45;;;;;;;2.60;1.58;;;-0.60;99.90;;;;;;5074961;28;20051;-90
2024/01/19 06:24:17;;;;;;;1.70;0.90;;;-0.60;99.90;;;;;;5075765;28;20040;-89
2024/01/19 06:26:48;;;;;;;5.57;1.55;;;-0.60;99.90;;;;;;5119063;28;20046;-90
2024/01/19 06:29:16;;;;;;;3.20;1.05;;;-0.60;99.90;;;;;;5084415;28;20127;-90
2024/01/19 06:31:46;;;;;;;3.50;1.65;;;-0.60;99.90;;;;;;5107994;27;20048;-90
2024/01/19 06:34:12;;;;;;;3.17;1.17;;;-0.60;99.90;;;;;;5076612;28;20046;-90
2024/01/19 06:36:38;;;;;;;4.35;0.60;;;-0.60;99.90;;;;;;5097619;27;20091;-90
2024/01/19 06:39:07;;;;;;;1.92;1.00;;;-0.70;99.90;;;;;;5094803;27;20506;-90
2024/01/19 06:41:32;;;;;;;2.88;1.20;;;-0.60;99.90;;;;;;5100078;27;20036;-89
2024/01/19 06:43:58;;;;;;;1.75;0.68;;;-0.70;99.90;;;;;;5081338;28;20076;-90
2024/01/19 06:46:23;;;;;;;2.60;0.70;;;-0.70;99.90;;;;;;5084574;28;20031;-89
2024/01/19 06:48:49;;;;;;;2.55;1.10;;;-0.70;99.90;;;;;;5103928;27;20036;-89
2024/01/19 06:51:20;;;;;;;3.38;1.40;;;-0.60;99.90;;;;;;5074871;28;20067;-90
2024/01/19 06:53:46;;;;;;;2.70;0.68;;;-0.60;99.90;;;;;;5080430;27;20557;-92
2024/01/19 06:56:11;;;;;;;1.98;1.05;;;-0.70;99.90;;;;;;5098609;27;20123;-87
2024/01/19 06:58:37;;;;;;;1.83;0.75;;;-0.60;99.90;;;;;;5075808;28;20115;-87
2024/01/19 07:01:02;;;;;;;0.50;0.45;;;-0.60;99.90;;;;;;5093497;27;20522;-89
2024/01/19 07:03:28;;;;;;;3.20;0.63;;;-0.60;99.90;;;;;;5096785;28;20406;-89
2024/01/19 07:05:55;;;;;;;1.70;1.35;;;-0.60;99.90;;;;;;5093948;27;20056;-89
2024/01/19 07:08:20;;;;;;;0.63;0.55;;;-0.50;99.90;;;;;;5092296;28;20032;-89
2024/01/19 07:10:46;;;;;;;1.35;0.32;;;-0.40;99.90;;;;;;5093627;28;20036;-90
2024/01/19 07:13:11;;;;;;;0.30;0.30;;;-0.40;99.90;;;;;;5090313;28;20040;-90
2024/01/19 07:15:37;;;;;;;2.17;0.65;;;-0.20;99.90;;;;;;5081113;28;20498;-89
2024/01/19 07:18:03;;;;;;;5.18;0.95;;;-0.10;99.90;;;;;;5090107;28;20483;-90
2024/01/19 07:20:29;;;;;;;3.60;0.75;;;-0.10;99.90;;;;;;5090396;27;20487;-90
2024/01/19 07:22:55;;;;;;;3.53;0.63;;;0.00;99.90;;;;;;5076887;28;20044;-89
2024/01/19 07:25:20;;;;;;;3.60;0.98;;;0.10;99.90;;;;;;5074303;28;20093;-89
2024/01/19 07:27:46;;;;;;;1.13;0.40;;;0.10;99.90;;;;;;5076736;27;20418;-89
2024/01/19 07:30:12;;;;;;;0.32;0.32;;;0.10;99.90;;;;;;5097290;28;20043;-90
2024/01/19 07:32:37;;;;;;;1.55;0.70;;;0.10;99.90;;;;;;5096545;28;20062;-90
2024/01/19 07:35:03;;;;;;;0.80;0.50;;;0.10;99.90;;;;;;5098594;28;20071;-90
2024/01/19 07:37:29;;;;;;;1.65;0.45;;;0.10;99.90;;;;;;5100240;28;20032;-89
2024/01/19 07:39:54;;;;;;;1.85;0.63;;;0.00;99.90;;;;;;5100860;27;20056;-89
2024/01/19 07:42:20;;;;;;;8.00;0.77;;;-0.10;99.90;;;;;;5074492;28;20044;-89
2024/01/19 07:44:45;;;;;;;4.93;0.80;;;-0.10;99.90;;;;;;5091422;28;20040;-90
2024/01/19 07:47:11;;;;;;;0.45;0.40;;;-0.10;99.90;;;;;;5081375;28;20031;-90
2024/01/19 07:49:36;;;;;;;0.22;0.20;;;-0.20;99.90;;;;;;5085564;28;20040;-90
2024/01/19 07:52:02;;;;;;;2.25;0.60;;;-0.20;99.90;;;;;;5087344;28;20118;-90
2024/01/19 07:54:28;;;;;;;0.73;0.43;;;-0.30;99.90;;;;;;5081793;28;20043;-90
2024/01/19 07:56:53;;;;;;;0.43;0.30;;;-0.30;99.90;;;;;;5081662;28;20039;-90
2024/01/19 07:59:19;;;;;;;0.45;0.38;;;-0.40;99.90;;;;;;5079725;28;20115;-90
2024/01/19 08:01:45;;;;;;;2.20;0.75;;;-0.40;99.90;;;;;;5079406;27;20071;-90
2024/01/19 08:04:10;;;;;;;0.75;0.38;;;-0.40;99.90;;;;;;5099551;28;20035;-92
2024/01/19 08:06:36;;;;;;;1.00;0.63;;;-0.50;99.90;;;;;;5079625;28;20066;-90
2024/01/19 08:09:02;;;;;;;3.92;0.82;;;-0.50;99.90;;;;;;5074700;28;20380;-91
2024/01/19 08:11:28;;;;;;;1.88;0.68;;;-0.50;99.90;;;;;;5093704;28;20106;-90
2024/01/19 08:13:53;;;;;;;0.85;0.55;;;-0.50;99.90;;;;;;5078034;28;20044;-90
2024/01/19 08:16:19;;;;;;;1.45;0.52;;;-0.40;99.90;;;;;;5091589;28;20044;-91
2024/01/19 08:18:44;;;;;;;0.28;0.28;;;-0.50;99.90;;;;;;5079933;28;20036;-90
2024/01/19 08:21:10;;;;;;;0.30;0.30;;;-0.50;99.90;;;;;;5094159;27;20514;-91
2024/01/19 08:23:35;;;;;;;0.40;0.40;;;-0.40;99.90;;;;;;5073468;28;20628;-90
2024/01/19 08:26:05;;;;;;;1.08;0.40;;;-0.40;99.90;;;;;;5079106;28;20068;-91
2024/01/19 08:28:30;;;;;;;0.38;0.30;;;-0.30;99.90;;;;;;5099231;27;20115;-90
2024/01/19 08:30:56;;;;;;;0.60;0.45;;;-0.20;99.90;;;;;;5078684;28;20735;-90
2024/01/19 08:33:22;;;;;;;0.30;0.30;;;-0.20;99.90;;;;;;5072768;28;20028;-90
2024/01/19 08:35:47;;;;;;;0.55;0.43;;;-0.20;99.90;;;;;;5090214;28;20040;-90
2024/01/19 08:38:13;;;;;;;1.95;0.55;;;-0.10;99.90;;;;;;5080982;28;20035;-91
2024/01/19 08:40:39;;;;;;;1.55;0.45;;;0.00;99.90;;;;;;5079004;27;20040;-90
2024/01/19 08:43:05;;;;;;;1.08;0.75;;;0.10;99.90;;;;;;5082476;28;20646;-91
2024/01/19 08:45:30;;;;;;;0.20;0.20;;;0.10;99.90;;;;;;5094438;28;20031;-91
2024/01/19 08:47:57;;;;;;;1.00;0.40;;;0.20;99.90;;;;;;5073150;27;20046;-90
2024/01/19 08:50:22;;;;;;;1.35;0.50;;;0.20;99.90;;;;;;5095568;28;20031;-91
2024/01/19 08:52:48;;;;;;;0.30;0.30;;;0.20;99.90;;;;;;5081217;28;20077;-90
2024/01/19 08:55:13;;;;;;;0.40;0.20;;;0.20;99.90;;;;;;5073490;28;20508;-90
2024/01/19 08:57:39;;;;;;;0.30;0.30;;;0.20;99.90;;;;;;5076842;28;20047;-90
2024/01/19 09:00:07;;;;;;;1.15;0.50;;;0.20;99.90;;;;;;5073252;28;20127;-90
2024/01/19 09:02:33;;;;;;;0.57;0.50;;;0.20;99.90;;;;;;5089197;28;20048;-90
2024/01/19 09:04:59;;;;;;;1.45;0.50;;;0.20;99.90;;;;;;5087589;28;20031;-89
2024/01/19 09:07:25;;;;;;;3.83;1.15;;;0.20;99.90;;;;;;5087594;28;20636;-90
2024/01/19 09:09:51;;;;;;;1.00;0.63;;;0.30;99.90;;;;;;5072421;28;20039;-90
2024/01/19 09:12:17;;;;;;;4.07;0.95;;;0.30;99.90;;;;;;5074903;28;20039;-90
2024/01/19 09:14:42;;;;;;;3.60;1.35;;;0.30;99.90;;;;;;5069036;28;20039;-90
2024/01/19 09:17:08;;;;;;;1.05;0.63;;;0.40;99.90;;;;;;5077359;28;20040;-91
2024/01/19 09:19:33;;;;;;;1.10;0.70;;;0.40;99.90;;;;;;5075727;28;20063;-90
2024/01/19 09:21:59;;;;;;;5.47;1.35;;;0.40;99.90;;;;;;5077441;28;20430;-90
2024/01/19 09:24:26;;;;;;;1.40;0.65;;;0.50;99.90;;;;;;5092670;28;20042;-90
2024/01/19 09:26:52;;;;;;;1.65;0.50;;;0.50;99.90;;;;;;5091024;28;20044;-90
2024/01/19 09:29:18;;;;;;;0.80;0.40;;;0.60;99.90;;;;;;5089875;28;20081;-90
2024/01/19 09:31:43;;;;;;;1.95;1.08;;;0.60;99.90;;;;;;5075145;28;20632;-90
2024/01/19 09:34:10;;;;;;;3.30;0.75;;;0.70;99.90;;;;;;5089923;28;20038;-90
2024/01/19 09:36:35;;;;;;;1.38;0.65;;;0.70;99.90;;;;;;5078593;28;20071;-90
2024/01/19 09:39:01;;;;;;;4.55;1.05;;;0.80;99.90;;;;;;5101008;28;20415;-90
2024/01/19 09:41:42;;;;;;;1.27;0.70;;;0.80;99.90;;;;;;5103300;28;20068;-91
2024/01/19 09:44:09;;;;;;;2.30;1.02;;;0.90;99.90;;;;;;5097798;28;20089;-91
2024/01/19 09:46:51;;;;;;;1.48;0.60;;;0.90;99.90;;;;;;5101346;28;20032;-91
2024/01/19 09:49:34;;;;;;;2.15;1.38;;;1.00;99.90;;;;;;5102586;28;20027;-91
2024/01/19 09:52:11;;;;;;;;;;;1.00;99.90;;;;;;5103761;27;20046;-91
2024/01/19 09:54:37;;;;;;;1.42;0.95;;;1.10;99.90;;;;;;5097820;28;19965;-91
2024/01/19 09:57:03;;;;;;;3.88;1.02;;;1.10;99.90;;;;;;5077148;28;20081;-91
2024/01/19 09:59:33;;;;;;;1.50;0.70;;;1.20;99.90;;;;;;5083621;28;20036;-91
2024/01/19 10:02:00;;;;;;;6.57;1.98;;;1.20;99.90;;;;;;5078497;27;20031;-91
2024/01/19 10:04:27;;;;;;;0.52;0.52;;;1.30;99.90;;;;;;5091668;28;20044;-90
2024/01/19 10:06:54;;;;;;;2.58;0.85;;;1.30;99.90;;;;;;5074488;28;20038;-90
2024/01/19 10:09:20;;;;;;;1.55;0.75;;;1.30;99.90;;;;;;5076913;28;21264;-90
2024/01/19 10:11:50;;;;;;;2.28;1.00;;;1.40;99.90;;;;;;5094560;28;20097;-91
2024/01/19 10:14:16;;;;;;;9.68;1.63;;;1.50;99.90;;;;;;5093939;28;20078;-91
2024/01/19 10:16:45;;;;;;;5.47;1.00;;;1.50;99.90;;;;;;5082652;28;20071;-91
2024/01/19 10:19:13;;;;;;;3.60;1.33;;;1.60;99.90;;;;;;5084992;28;20042;-90
2024/01/19 10:21:42;;;;;;;3.70;1.52;;;1.70;99.90;;;;;;5083988;28;20456;-91
2024/01/19 10:24:11;;;;;;;3.78;1.02;;;1.70;99.90;;;;;;5087650;28;20037;-91
2024/01/19 10:26:37;;;;;;;6.00;1.92;;;1.80;99.90;;;;;;5081115;28;20544;-91
2024/01/19 10:29:16;;;;;;;4.18;1.00;;;1.90;99.90;;;;;;5091001;28;20032;-92
2024/01/19 10:31:46;;;;;;;4.00;0.95;;;1.90;99.90;;;;;;5097029;28;20028;-91
2024/01/19 10:34:19;;;;;;;1.40;0.80;;;2.00;99.90;;;;;;5100773;28;20097;-91
2024/01/19 10:36:46;;;;;;;0.85;0.43;;;2.10;99.90;;;;;;5084076;28;20036;-92
2024/01/19 10:39:16;;;;;;;1.75;0.82;;;2.10;99.90;;;;;;5094760;27;20040;-91
2024/01/19 10:41:42;;;;;;;3.05;1.42;;;2.20;99.90;;;;;;5094208;27;20039;-91
2024/01/19 10:44:16;;;;;;;2.13;0.88;;;2.30;99.90;;;;;;5093840;28;20027;-91
2024/01/19 10:46:43;;;;;;;2.33;1.25;;;2.40;99.90;;;;;;5078609;28;20051;-91
2024/01/19 10:49:10;;;;;;;2.15;1.00;;;2.50;99.90;;;;;;5089976;28;20055;-91
2024/01/19 10:51:44;;;;;;;4.28;1.58;;;2.60;99.90;;;;;;5079376;28;20047;-92
2024/01/19 10:54:16;;;;;;;7.00;1.27;;;2.60;99.90;;;;;;5080722;28;20399;-91
2024/01/19 10:56:46;;;;;;;6.95;2.00;;;2.70;99.90;;;;;;5076838;28;20095;-91
2024/01/19 10:59:14;;;;;;;5.10;1.80;;;2.70;99.90;;;;;;5080956;28;20735;-91
2024/01/19 11:01:41;;;;;;;8.32;2.00;;;2.80;99.90;;;;;;5078897;28;20040;-92
2024/01/19 11:04:09;;;;;;;4.68;1.77;;;2.90;99.90;;;;;;5093800;27;20490;-91
2024/01/19 11:06:38;;;;;;;4.95;1.63;;;3.00;99.90;;;;;;5077206;28;20032;-91
2024/01/19 11:09:07;;;;;;;5.82;1.73;;;3.00;99.90;;;;;;5097226;28;20453;-91
2024/01/19 11:11:57;;;;;;;8.43;1.58;;;3.00;99.90;;;;;;5079173;28;20029;-91
2024/01/19 11:14:25;;;;;;;4.93;1.98;;;3.00;99.90;;;;;;5072933;28;20040;-91
2024/01/19 11:16:55;;;;;;;5.72;1.35;;;3.00;99.90;;;;;;5096824;27;20032;-92
2024/01/19 11:19:24;;;;;;;3.75;1.50;;;3.10;99.90;;;;;;5105922;27;20517;-91
2024/01/19 11:21:51;;;;;;;3.55;1.23;;;3.20;99.90;;;;;;5094964;28;20032;-90
2024/01/19 11:24:19;;;;;;;5.05;1.42;;;3.20;99.90;;;;;;5095412;28;20460;-90
2024/01/19 11:27:09;;;;;;;2.08;0.90;;;3.40;99.90;;;;;;5076653;28;20039;-91
2024/01/19 11:29:43;;;;;;;5.78;1.92;;;3.50;99.90;;;;;;5077952;28;20036;-91
2024/01/19 11:32:10;;;;;;;5.90;2.45;;;3.60;99.90;;;;;;5076503;28;20182;-91
2024/01/19 11:34:41;;;;;;;4.85;0.95;;;3.70;99.90;;;;;;5102833;28;20036;-90
2024/01/19 11:37:07;;;;;;;4.57;1.60;;;3.70;99.90;;;;;;5078603;28;20057;-90
2024/01/19 11:39:41;;;;;;;10.18;1.33;;;3.80;99.90;;;;;;5087310;28;20035;-90
2024/01/19 11:42:09;;;;;;;5.22;1.10;;;3.90;99.90;;;;;;5092320;28;20036;-91
2024/01/19 11:44:45;;;;;;;1.75;0.90;;;3.90;99.90;;;;;;5077107;28;20051;-90
2024/01/19 11:47:43;;;;;;;6.47;1.55;;;4.00;99.90;;;;;;5081528;28;20067;-90
2024/01/19 11:50:11;;;;;;;5.30;1.15;;;4.00;99.90;;;;;;5024803;28;20052;-89
2024/01/19 11:52:39;;;;;;;1.55;0.63;;;4.10;99.90;;;;;;5015530;28;20064;-90
2024/01/19 11:55:25;;;;;;;5.53;1.70;;;4.20;99.90;;;;;;5041787;28;20048;-90
2024/01/19 11:57:51;;;;;;;5.22;1.67;;;4.30;99.90;;;;;;5053621;28;20045;-90
2024/01/19 12:00:19;;;;;;;7.13;1.70;;;4.40;99.90;;;;;;5044776;28;20040;-90
2024/01/19 12:02:45;;;;;;;2.85;1.05;;;4.50;99.90;;;;;;5056628;28;20534;-91
2024/01/19 12:05:11;;;;;;;4.72;1.10;;;4.60;99.90;;;;;;5024687;28;20590;-91
2024/01/19 12:07:37;;;;;;;4.07;1.20;;;4.60;99.90;;;;;;5017547;28;20135;-91
2024/01/19 12:10:15;;;;;;;1.67;0.75;;;4.70;99.90;;;;;;5062129;28;20044;-91
2024/01/19 12:12:41;;;;;;;1.55;1.00;;;4.80;99.90;;;;;;5019001;28;20044;-91
2024/01/19 12:15:09;;;;;;;6.43;1.90;;;4.90;99.90;;;;;;5055238;28;20051;-92
2024/01/19 12:17:37;;;;;;;4.40;1.45;;;5.20;99.90;;;;;;5016978;28;20623;-90
2024/01/19 12:20:06;;;;;;;7.97;1.80;;;5.40;99.90;;;;;;5034829;28;20522;-90
2024/01/19 12:22:32;;;;;;;2.17;1.05;;;5.90;99.90;;;;;;5052048;28;20036;-91
2024/01/19 12:25:19;;;;;;;8.13;2.35;;;6.70;99.90;;;;;;5034957;28;20482;-91
2024/01/19 12:27:47;;;;;;;4.10;1.50;;;7.60;99.90;;;;;;5084774;28;20522;-91
2024/01/19 12:30:17;;;;;;;4.57;1.23;;;8.50;99.90;;;;;;5093912;28;20032;-91
2024/01/19 12:32:44;;;;;;;6.68;1.40;;;9.10;99.90;;;;;;5114638;27;20055;-92
2024/01/19 12:35:12;;;;;;;3.38;1.02;;;9.50;99.90;;;;;;5099052;28;20046;-90
2024/01/19 12:37:38;;;;;;;8.27;1.65;;;9.40;95.50;;;;;;5081960;28;20040;-91
2024/01/19 12:40:18;;;;;;;7.45;1.52;;;9.20;97.90;;;;;;5082280;28;20038;-90
2024/01/19 12:42:44;;;;;;;4.25;1.23;;;9.10;99.70;;;;;;5082414;27;20391;-92
2024/01/19 12:45:15;;;;;;;5.93;0.98;;;9.40;99.90;;;;;;5099008;28;20024;-91
2024/01/19 12:47:42;;;;;;;3.78;1.02;;;10.00;99.90;;;;;;5084362;28;20054;-91
2024/01/19 12:50:08;;;;;;;3.65;0.90;;;10.60;94.20;;;;;;5078904;28;20039;-93